Time;durP1;ratioP1;P1;durP2;ratioP2;P2;SDS_P1;SDS_P2;PMS_P1;PMS_P2;Temp;Humidity;BMP_temperature;BMP_pressure;BME280_temperature;BME280_humidity;BME280_pressure;Samples;Min_cycle;Max_cycle;Signal;HPM_P1;HPM_P2
2024/01/30 00:01:41;;;;;;;8.18;6.88;;;8.60;99.90;;;;;;5096147;28;20533;-84
2024/01/30 00:04:07;;;;;;;7.10;6.40;;;8.60;99.90;;;;;;5061491;28;20121;-84
2024/01/30 00:06:35;;;;;;;8.45;6.75;;;8.60;99.90;;;;;;5078823;28;20476;-84
2024/01/30 00:09:01;;;;;;;11.38;6.97;;;8.60;99.90;;;;;;5061520;28;20051;-84
2024/01/30 00:11:28;;;;;;;8.88;6.90;;;8.60;99.90;;;;;;5078405;28;20379;-81
2024/01/30 00:13:54;;;;;;;8.48;7.10;;;8.60;99.90;;;;;;5044853;28;20029;-82
2024/01/30 00:16:24;;;;;;;10.00;6.90;;;8.50;99.90;;;;;;5078464;28;20024;-82
2024/01/30 00:18:51;;;;;;;8.10;7.28;;;8.50;99.90;;;;;;5096390;28;20453;-83
2024/01/30 00:21:17;;;;;;;8.98;7.55;;;8.50;99.90;;;;;;5078437;28;20055;-83
2024/01/30 00:23:43;;;;;;;9.20;7.57;;;8.50;99.90;;;;;;5061200;28;20046;-83
2024/01/30 00:26:09;;;;;;;9.73;7.38;;;8.50;99.90;;;;;;5078076;28;20032;-82
2024/01/30 00:28:35;;;;;;;9.75;7.05;;;8.50;99.90;;;;;;5101400;28;20016;-81
2024/01/30 00:31:00;;;;;;;8.82;7.15;;;8.50;99.90;;;;;;5069385;28;20099;-81
2024/01/30 00:33:26;;;;;;;8.20;7.25;;;8.40;99.90;;;;;;5085115;28;20028;-82
2024/01/30 00:35:52;;;;;;;10.60;7.68;;;8.40;99.90;;;;;;5096135;28;20030;-82
2024/01/30 00:38:17;;;;;;;9.70;6.97;;;8.40;99.90;;;;;;5080141;28;20039;-83
2024/01/30 00:40:43;;;;;;;8.75;6.88;;;8.40;99.90;;;;;;5077940;28;20036;-83
2024/01/30 00:43:09;;;;;;;9.20;7.63;;;8.30;99.90;;;;;;5044318;28;20028;-83
2024/01/30 00:45:34;;;;;;;10.18;7.55;;;8.30;99.90;;;;;;5095746;28;20139;-83
2024/01/30 00:48:00;;;;;;;8.95;7.43;;;8.30;99.90;;;;;;5077958;28;20048;-83
2024/01/30 00:50:26;;;;;;;10.38;7.45;;;8.30;99.90;;;;;;5061007;28;20028;-83
2024/01/30 00:52:51;;;;;;;10.18;7.47;;;8.30;99.90;;;;;;5044173;28;20021;-83
2024/01/30 00:55:17;;;;;;;10.63;7.38;;;8.20;99.90;;;;;;5043888;28;20071;-83
2024/01/30 00:57:43;;;;;;;8.52;7.55;;;8.20;99.90;;;;;;5077379;28;20036;-83
2024/01/30 01:00:09;;;;;;;8.50;7.25;;;8.20;99.90;;;;;;5060735;28;20387;-83
2024/01/30 01:02:39;;;;;;;8.63;7.20;;;8.20;99.90;;;;;;5095170;28;20023;-83
2024/01/30 01:05:05;;;;;;;10.40;7.38;;;8.10;99.90;;;;;;5060659;28;20521;-83
2024/01/30 01:07:30;;;;;;;10.80;7.57;;;8.10;99.90;;;;;;5059892;28;20085;-83
2024/01/30 01:09:56;;;;;;;9.95;7.63;;;8.10;99.90;;;;;;5060739;28;20028;-83
2024/01/30 01:12:22;;;;;;;10.10;7.15;;;8.00;99.90;;;;;;5076946;28;20036;-83
2024/01/30 01:14:47;;;;;;;9.07;7.68;;;8.00;99.90;;;;;;5076637;28;20127;-83
2024/01/30 01:17:13;;;;;;;9.55;7.90;;;8.00;99.90;;;;;;5060312;28;20445;-83
2024/01/30 01:19:38;;;;;;;10.15;7.22;;;8.00;99.90;;;;;;5094786;28;20464;-83
2024/01/30 01:22:04;;;;;;;9.00;7.50;;;8.10;99.90;;;;;;5060236;28;20486;-83
2024/01/30 01:24:32;;;;;;;9.23;7.10;;;8.10;99.90;;;;;;5076728;28;20075;-82
2024/01/30 01:26:58;;;;;;;8.35;6.78;;;8.00;99.90;;;;;;5076529;28;20426;-82
2024/01/30 01:29:28;;;;;;;10.43;7.97;;;8.10;99.90;;;;;;5094892;28;20145;-82
2024/01/30 01:31:58;;;;;;;9.15;7.07;;;8.00;99.90;;;;;;5060834;28;20078;-82
2024/01/30 01:34:24;;;;;;;9.70;6.55;;;8.00;99.90;;;;;;5076452;28;20490;-82
2024/01/30 01:36:50;;;;;;;7.80;6.93;;;8.10;99.90;;;;;;5076536;28;20028;-82
2024/01/30 01:39:16;;;;;;;7.93;6.88;;;8.10;99.90;;;;;;5076459;28;20028;-83
2024/01/30 01:41:41;;;;;;;8.48;6.72;;;8.10;99.90;;;;;;5076505;28;20032;-83
2024/01/30 01:44:07;;;;;;;8.57;6.80;;;8.20;99.90;;;;;;5059693;28;20035;-83
2024/01/30 01:46:34;;;;;;;7.82;6.63;;;8.20;99.90;;;;;;5060128;28;20032;-82
2024/01/30 01:49:04;;;;;;;8.13;6.65;;;8.20;99.90;;;;;;5076716;28;20028;-82
2024/01/30 01:51:33;;;;;;;9.10;6.37;;;8.20;99.90;;;;;;5078078;28;20047;-82
2024/01/30 01:54:01;;;;;;;9.50;7.03;;;8.20;99.90;;;;;;5099415;28;20262;-82
2024/01/30 01:56:29;;;;;;;9.10;7.13;;;8.30;99.90;;;;;;5101398;28;20020;-82
2024/01/30 01:58:55;;;;;;;10.90;7.63;;;8.20;99.90;;;;;;5097006;28;20043;-82
2024/01/30 02:01:21;;;;;;;8.57;6.78;;;8.20;99.90;;;;;;5115903;28;20024;-81
2024/01/30 02:03:47;;;;;;;8.90;7.03;;;8.20;99.90;;;;;;5097448;28;20078;-80
2024/01/30 02:06:17;;;;;;;8.60;6.72;;;8.20;99.90;;;;;;5089049;28;20512;-82
2024/01/30 02:08:43;;;;;;;8.07;6.90;;;8.20;99.90;;;;;;5076936;28;20123;-82
2024/01/30 02:11:10;;;;;;;8.32;6.93;;;8.20;99.90;;;;;;5059661;28;20024;-83
2024/01/30 02:13:36;;;;;;;8.40;7.22;;;8.20;99.90;;;;;;5094060;28;20028;-83
2024/01/30 02:16:01;;;;;;;10.05;7.18;;;8.10;99.90;;;;;;5076059;28;20075;-82
2024/01/30 02:18:27;;;;;;;9.30;7.65;;;8.10;99.90;;;;;;5042824;28;20104;-82
2024/01/30 02:20:55;;;;;;;9.50;7.03;;;8.10;99.90;;;;;;5076075;28;20050;-82
2024/01/30 02:23:25;;;;;;;10.15;8.15;;;8.10;99.90;;;;;;5074729;28;20107;-82
2024/01/30 02:25:52;;;;;;;9.70;7.53;;;8.10;99.90;;;;;;5075545;28;20112;-82
2024/01/30 02:28:19;;;;;;;10.10;7.95;;;8.00;99.90;;;;;;5042771;28;20032;-82
2024/01/30 02:30:46;;;;;;;9.23;7.53;;;8.00;99.90;;;;;;5075781;28;20476;-83
2024/01/30 02:33:12;;;;;;;9.70;8.20;;;8.00;99.90;;;;;;5075620;28;20468;-82
2024/01/30 02:35:38;;;;;;;9.73;7.72;;;8.00;99.90;;;;;;5058879;28;20052;-82
2024/01/30 02:38:04;;;;;;;11.10;8.40;;;8.00;99.90;;;;;;5075367;28;20055;-83
2024/01/30 02:40:30;;;;;;;11.20;8.57;;;8.00;99.90;;;;;;5075568;28;20032;-83
2024/01/30 02:42:56;;;;;;;11.63;8.27;;;8.00;99.90;;;;;;5074641;28;20028;-82
2024/01/30 02:45:22;;;;;;;10.70;7.78;;;7.90;99.90;;;;;;5092968;28;20035;-83
2024/01/30 02:47:47;;;;;;;9.90;8.25;;;7.90;99.90;;;;;;5075172;28;20031;-83
2024/01/30 02:50:14;;;;;;;10.65;8.25;;;7.90;99.90;;;;;;5041879;28;20379;-83
2024/01/30 02:52:40;;;;;;;10.60;7.38;;;7.90;99.90;;;;;;5074890;28;20067;-83
2024/01/30 02:55:06;;;;;;;9.70;7.97;;;7.90;99.90;;;;;;5042360;28;20148;-83
2024/01/30 02:57:32;;;;;;;8.30;7.18;;;7.80;99.90;;;;;;5041511;28;20031;-82
2024/01/30 02:59:58;;;;;;;11.50;7.70;;;7.80;99.90;;;;;;5075299;28;20028;-83
2024/01/30 03:02:23;;;;;;;10.18;7.35;;;7.80;99.90;;;;;;5058446;28;20384;-82
2024/01/30 03:04:49;;;;;;;9.95;7.65;;;7.80;99.90;;;;;;5075567;28;20103;-82
2024/01/30 03:07:15;;;;;;;9.23;7.70;;;7.70;99.90;;;;;;5059350;28;20067;-82
2024/01/30 03:09:43;;;;;;;10.27;8.15;;;7.80;99.90;;;;;;5042159;28;20028;-83
2024/01/30 03:12:09;;;;;;;9.60;7.50;;;7.80;99.90;;;;;;5060219;28;20074;-83
2024/01/30 03:14:34;;;;;;;9.30;7.78;;;7.70;99.90;;;;;;5041570;28;20048;-82
2024/01/30 03:17:00;;;;;;;9.73;8.00;;;7.70;99.90;;;;;;5058812;28;20040;-82
2024/01/30 03:19:26;;;;;;;10.18;7.47;;;7.70;99.90;;;;;;5043191;28;20396;-83
2024/01/30 03:21:52;;;;;;;10.45;8.07;;;7.60;99.90;;;;;;5110371;28;20019;-81
2024/01/30 03:24:18;;;;;;;9.73;7.97;;;7.60;99.90;;;;;;5099626;28;20012;-82
2024/01/30 03:26:44;;;;;;;8.13;6.88;;;7.60;99.90;;;;;;5098086;28;20016;-82
2024/01/30 03:29:09;;;;;;;10.02;7.88;;;7.60;99.90;;;;;;5081516;28;20037;-81
2024/01/30 03:31:35;;;;;;;9.52;7.97;;;7.50;99.90;;;;;;5094379;28;20028;-83
2024/01/30 03:34:01;;;;;;;9.57;7.50;;;7.50;99.90;;;;;;5058776;28;20043;-82
2024/01/30 03:36:27;;;;;;;9.32;7.57;;;7.50;99.90;;;;;;5077121;28;20055;-82
2024/01/30 03:38:53;;;;;;;9.88;7.90;;;7.50;99.90;;;;;;5078356;28;20368;-83
2024/01/30 03:41:19;;;;;;;9.30;7.63;;;7.60;99.90;;;;;;5096271;28;20031;-82
2024/01/30 03:43:44;;;;;;;9.88;7.90;;;7.60;99.90;;;;;;5044314;28;20039;-83
2024/01/30 03:46:12;;;;;;;10.32;7.55;;;7.60;99.90;;;;;;5061152;28;20031;-82
2024/01/30 03:48:39;;;;;;;10.48;7.72;;;7.60;99.90;;;;;;5077454;28;20032;-82
2024/01/30 03:51:04;;;;;;;10.65;7.97;;;7.50;99.90;;;;;;5078399;28;20020;-82
2024/01/30 03:53:30;;;;;;;8.32;7.43;;;7.60;99.90;;;;;;5077838;28;20090;-83
2024/01/30 03:55:56;;;;;;;10.80;7.70;;;7.50;99.90;;;;;;5078267;28;20081;-83
2024/01/30 03:58:22;;;;;;;9.43;7.30;;;7.50;99.90;;;;;;5077415;28;20084;-83
2024/01/30 04:00:48;;;;;;;8.90;7.88;;;7.50;99.90;;;;;;5078052;28;20485;-83
2024/01/30 04:03:15;;;;;;;9.18;7.53;;;7.50;99.90;;;;;;5044560;28;20028;-83
2024/01/30 04:05:41;;;;;;;10.05;7.38;;;7.50;99.90;;;;;;5096283;28;20020;-83
2024/01/30 04:08:07;;;;;;;9.13;7.07;;;7.40;99.90;;;;;;5060935;28;20073;-83
2024/01/30 04:10:33;;;;;;;7.95;6.72;;;7.50;99.90;;;;;;5077955;28;20035;-83
2024/01/30 04:12:59;;;;;;;10.50;7.38;;;7.50;99.90;;;;;;5060476;28;20430;-83
2024/01/30 04:15:25;;;;;;;10.55;7.35;;;7.50;99.90;;;;;;5060322;28;20131;-84
2024/01/30 04:17:51;;;;;;;10.80;7.47;;;7.50;99.90;;;;;;5095263;28;20170;-83
2024/01/30 04:20:17;;;;;;;9.13;7.05;;;7.50;99.90;;;;;;5077486;28;20446;-84
2024/01/30 04:22:44;;;;;;;10.40;7.38;;;7.40;99.90;;;;;;5060672;28;20026;-84
2024/01/30 04:25:10;;;;;;;8.88;7.15;;;7.50;99.90;;;;;;5077258;28;20036;-84
2024/01/30 04:27:35;;;;;;;9.50;7.38;;;7.50;99.90;;;;;;5061173;28;20039;-83
2024/01/30 04:30:01;;;;;;;10.45;7.15;;;7.50;99.90;;;;;;5077042;28;20498;-83
2024/01/30 04:32:26;;;;;;;10.23;7.45;;;7.50;99.90;;;;;;5077922;28;20476;-84
2024/01/30 04:34:55;;;;;;;10.18;7.75;;;7.50;99.90;;;;;;5044324;28;20032;-84
2024/01/30 04:37:21;;;;;;;10.02;7.28;;;7.50;99.90;;;;;;5045074;28;20131;-84
2024/01/30 04:39:46;;;;;;;8.43;6.93;;;7.50;99.90;;;;;;5077372;28;20059;-83
2024/01/30 04:42:12;;;;;;;10.20;7.20;;;7.50;99.90;;;;;;5077550;28;20119;-83
2024/01/30 04:44:38;;;;;;;10.13;7.63;;;7.50;99.90;;;;;;5046378;28;20092;-83
2024/01/30 04:47:05;;;;;;;9.98;7.43;;;7.50;99.90;;;;;;5057574;28;20012;-83
2024/01/30 04:49:31;;;;;;;8.15;6.70;;;7.50;99.90;;;;;;5085004;28;20084;-83
2024/01/30 04:51:57;;;;;;;9.70;6.60;;;7.60;99.90;;;;;;5118112;28;20009;-83
2024/01/30 04:54:23;;;;;;;7.80;6.57;;;7.60;99.90;;;;;;5099923;28;20028;-84
2024/01/30 04:56:49;;;;;;;9.13;6.90;;;7.60;99.90;;;;;;5080901;28;20028;-83
2024/01/30 04:59:14;;;;;;;8.70;6.45;;;7.70;99.90;;;;;;5077788;28;20482;-83
2024/01/30 05:01:40;;;;;;;10.07;6.60;;;7.70;99.90;;;;;;5043390;28;20024;-83
2024/01/30 05:04:08;;;;;;;9.00;6.82;;;7.70;99.90;;;;;;5077043;28;20042;-83
2024/01/30 05:06:34;;;;;;;8.80;7.00;;;7.80;99.90;;;;;;5094448;28;20078;-83
2024/01/30 05:09:00;;;;;;;8.57;6.13;;;7.90;99.90;;;;;;5094358;28;20422;-84
2024/01/30 05:11:25;;;;;;;9.10;6.65;;;7.90;99.90;;;;;;5075729;28;20096;-84
2024/01/30 05:13:51;;;;;;;9.98;7.38;;;7.90;99.90;;;;;;5076162;28;20023;-83
2024/01/30 05:16:17;;;;;;;8.95;7.28;;;7.90;99.90;;;;;;5076977;28;20032;-83
2024/01/30 05:18:43;;;;;;;10.60;6.70;;;8.00;99.90;;;;;;5043040;28;20046;-84
2024/01/30 05:21:10;;;;;;;8.40;6.97;;;8.00;99.90;;;;;;5094208;28;20064;-84
2024/01/30 05:23:35;;;;;;;9.85;7.28;;;8.10;99.90;;;;;;5075615;28;20027;-85
2024/01/30 05:26:02;;;;;;;9.18;6.95;;;8.10;99.90;;;;;;5075931;28;20020;-84
2024/01/30 05:28:29;;;;;;;7.88;6.53;;;8.20;99.90;;;;;;5075508;28;20024;-84
2024/01/30 05:30:56;;;;;;;11.57;6.90;;;8.20;99.90;;;;;;5076140;28;20107;-85
2024/01/30 05:33:22;;;;;;;8.95;6.70;;;8.20;99.90;;;;;;5075792;28;20029;-84
2024/01/30 05:35:48;;;;;;;10.23;7.00;;;8.30;99.90;;;;;;5076668;28;20039;-84
2024/01/30 05:38:15;;;;;;;10.52;6.40;;;8.30;99.90;;;;;;5059557;28;20035;-83
2024/01/30 05:40:41;;;;;;;8.80;7.05;;;8.30;99.90;;;;;;5059135;28;20067;-83
2024/01/30 05:43:07;;;;;;;8.60;6.82;;;8.30;99.90;;;;;;5059380;28;20020;-82
2024/01/30 05:45:34;;;;;;;8.80;6.43;;;8.40;99.90;;;;;;5059785;28;20028;-83
2024/01/30 05:47:59;;;;;;;8.43;6.28;;;8.40;99.90;;;;;;5075261;28;20472;-84
2024/01/30 05:50:26;;;;;;;9.50;6.47;;;8.40;99.90;;;;;;5075930;28;20039;-84
2024/01/30 05:52:51;;;;;;;8.00;6.30;;;8.40;99.90;;;;;;5059206;28;20039;-84
2024/01/30 05:55:17;;;;;;;8.82;7.15;;;8.40;99.90;;;;;;5059572;28;20115;-83
2024/01/30 05:57:43;;;;;;;8.88;6.78;;;8.50;99.90;;;;;;5058721;28;20036;-83
2024/01/30 06:00:08;;;;;;;10.48;6.85;;;8.50;99.90;;;;;;5042709;28;20036;-83
2024/01/30 06:02:34;;;;;;;9.32;6.50;;;8.50;99.90;;;;;;5094361;28;20060;-84
2024/01/30 06:05:00;;;;;;;9.00;6.63;;;8.50;99.90;;;;;;5042686;28;20028;-83
2024/01/30 06:07:25;;;;;;;8.38;6.15;;;8.60;99.90;;;;;;5043013;28;20028;-84
2024/01/30 06:09:51;;;;;;;7.38;6.25;;;8.60;99.90;;;;;;5059842;28;20032;-83
2024/01/30 06:12:17;;;;;;;7.15;6.13;;;8.60;99.90;;;;;;5043840;28;20057;-83
2024/01/30 06:14:42;;;;;;;9.32;6.47;;;8.70;99.90;;;;;;5093291;28;20044;-82
2024/01/30 06:17:09;;;;;;;7.60;5.80;;;8.70;99.90;;;;;;5083599;28;20092;-83
2024/01/30 06:19:35;;;;;;;7.63;6.22;;;8.70;99.90;;;;;;5100309;28;20012;-82
2024/01/30 06:22:01;;;;;;;8.10;6.45;;;8.70;99.90;;;;;;5098092;28;20036;-82
2024/01/30 06:24:27;;;;;;;8.25;6.10;;;8.70;99.90;;;;;;5064325;28;20118;-83
2024/01/30 06:26:53;;;;;;;7.25;6.03;;;8.70;99.90;;;;;;5044326;28;20055;-83
2024/01/30 06:29:19;;;;;;;8.73;6.55;;;8.80;99.90;;;;;;5059704;28;20511;-83
2024/01/30 06:31:44;;;;;;;7.25;5.82;;;8.80;99.90;;;;;;5075979;28;20024;-83
2024/01/30 06:34:11;;;;;;;10.48;6.55;;;8.80;99.90;;;;;;5076215;28;20032;-83
2024/01/30 06:36:37;;;;;;;7.95;5.97;;;8.80;99.90;;;;;;5075649;28;20456;-83
2024/01/30 06:39:03;;;;;;;8.23;5.60;;;8.80;99.90;;;;;;5075791;28;20059;-83
2024/01/30 06:41:29;;;;;;;7.45;5.63;;;8.80;99.90;;;;;;5093779;28;20417;-84
2024/01/30 06:43:56;;;;;;;9.27;6.78;;;8.90;99.90;;;;;;5058950;28;20035;-83
2024/01/30 06:46:21;;;;;;;8.63;5.35;;;8.90;99.90;;;;;;5059043;28;20114;-84
2024/01/30 06:48:47;;;;;;;6.82;5.47;;;8.90;99.90;;;;;;5075413;28;20111;-83
2024/01/30 06:51:13;;;;;;;8.70;5.90;;;8.90;99.90;;;;;;5042122;28;20024;-83
2024/01/30 06:53:38;;;;;;;8.30;5.68;;;8.90;99.90;;;;;;5075532;28;20067;-83
2024/01/30 06:56:05;;;;;;;6.40;5.20;;;9.00;99.90;;;;;;5075421;28;20043;-83
2024/01/30 06:58:30;;;;;;;7.78;5.32;;;9.00;99.90;;;;;;5058697;28;20488;-83
2024/01/30 07:00:56;;;;;;;7.07;5.60;;;9.00;99.90;;;;;;5058616;28;20081;-83
2024/01/30 07:03:22;;;;;;;6.07;5.15;;;9.00;99.90;;;;;;5058586;28;20032;-83
2024/01/30 07:05:48;;;;;;;8.25;5.93;;;9.10;99.90;;;;;;5042181;28;20028;-83
2024/01/30 07:08:17;;;;;;;8.55;6.50;;;9.10;99.90;;;;;;5075266;28;20060;-84
2024/01/30 07:10:43;;;;;;;7.45;6.30;;;9.10;99.90;;;;;;5078255;28;20028;-83
2024/01/30 07:13:10;;;;;;;7.30;5.15;;;9.10;99.90;;;;;;5079507;28;20044;-84
2024/01/30 07:15:36;;;;;;;7.95;5.72;;;9.10;99.90;;;;;;5045784;28;20059;-83
2024/01/30 07:18:02;;;;;;;8.32;5.93;;;9.10;99.90;;;;;;5062368;28;20089;-84
2024/01/30 07:20:30;;;;;;;6.95;5.32;;;9.10;99.90;;;;;;5062282;28;20432;-83
2024/01/30 07:22:55;;;;;;;8.00;5.97;;;9.20;99.90;;;;;;5078944;28;20062;-84
2024/01/30 07:25:21;;;;;;;7.07;5.28;;;9.20;99.90;;;;;;5062057;28;20051;-83
2024/01/30 07:27:47;;;;;;;8.52;6.03;;;9.20;99.90;;;;;;5062184;28;20032;-84
2024/01/30 07:30:13;;;;;;;8.02;5.55;;;9.20;99.90;;;;;;5078904;28;20020;-83
2024/01/30 07:32:38;;;;;;;8.77;5.97;;;9.20;99.90;;;;;;5045683;28;20464;-84
2024/01/30 07:35:04;;;;;;;7.45;5.85;;;9.20;99.90;;;;;;5062508;28;20380;-84
2024/01/30 07:37:30;;;;;;;8.43;5.78;;;9.30;99.90;;;;;;5045865;28;20554;-84
2024/01/30 07:39:56;;;;;;;7.03;5.13;;;9.20;99.90;;;;;;5063175;28;20090;-84
2024/01/30 07:42:21;;;;;;;6.60;5.60;;;9.30;99.90;;;;;;5069617;28;20008;-81
2024/01/30 07:44:47;;;;;;;7.40;5.78;;;9.30;99.90;;;;;;5085921;28;20086;-83
2024/01/30 07:47:12;;;;;;;9.32;5.88;;;9.30;99.90;;;;;;5069137;28;20020;-83
2024/01/30 07:49:41;;;;;;;8.55;5.53;;;9.30;99.90;;;;;;5066484;28;20028;-82
2024/01/30 07:52:07;;;;;;;8.48;5.28;;;9.30;99.90;;;;;;5083940;28;20054;-83
2024/01/30 07:54:33;;;;;;;8.25;5.65;;;9.30;99.90;;;;;;5062074;28;20039;-82
2024/01/30 07:57:00;;;;;;;7.97;5.28;;;9.30;99.90;;;;;;5061543;28;20432;-83
2024/01/30 07:59:26;;;;;;;9.25;5.75;;;9.40;99.90;;;;;;5061761;28;20438;-83
2024/01/30 08:01:51;;;;;;;11.00;5.82;;;9.40;99.90;;;;;;5078171;28;20024;-83
2024/01/30 08:04:17;;;;;;;7.07;5.32;;;9.40;99.90;;;;;;5061871;28;20115;-83
2024/01/30 08:06:43;;;;;;;6.85;5.70;;;9.40;99.90;;;;;;5061225;28;20032;-83
2024/01/30 08:09:08;;;;;;;6.97;5.95;;;9.40;99.90;;;;;;5061424;28;20115;-83
2024/01/30 08:11:34;;;;;;;8.82;6.07;;;9.40;99.90;;;;;;5061628;28;20468;-83
2024/01/30 08:14:00;;;;;;;7.13;5.38;;;9.40;99.90;;;;;;5044544;28;20024;-82
2024/01/30 08:16:25;;;;;;;6.55;5.65;;;9.40;99.90;;;;;;5061501;28;20162;-83
2024/01/30 08:18:53;;;;;;;7.28;5.90;;;9.40;99.90;;;;;;5078095;28;20048;-83
2024/01/30 08:21:18;;;;;;;8.57;6.13;;;9.50;99.90;;;;;;5077298;28;20024;-83
2024/01/30 08:23:44;;;;;;;8.43;5.68;;;9.50;99.90;;;;;;5061184;28;20039;-83
2024/01/30 08:26:10;;;;;;;6.20;5.57;;;9.50;99.90;;;;;;5077436;28;20031;-83
2024/01/30 08:28:35;;;;;;;7.88;6.10;;;9.50;99.90;;;;;;5060994;28;20071;-83
2024/01/30 08:31:02;;;;;;;8.75;5.93;;;9.50;99.90;;;;;;5044305;28;20474;-83
2024/01/30 08:33:27;;;;;;;8.10;5.60;;;9.60;99.90;;;;;;5060955;28;20046;-83
2024/01/30 08:35:53;;;;;;;7.32;5.32;;;9.60;99.90;;;;;;5044485;28;20028;-83
2024/01/30 08:38:19;;;;;;;8.23;5.65;;;9.70;99.90;;;;;;5044067;28;20128;-83
2024/01/30 08:40:45;;;;;;;7.10;5.60;;;9.70;99.90;;;;;;5044186;28;20035;-83
2024/01/30 08:43:10;;;;;;;8.02;5.60;;;9.70;99.90;;;;;;5043863;28;20056;-83
2024/01/30 08:45:36;;;;;;;6.57;5.60;;;9.80;99.90;;;;;;5060794;28;20082;-83
2024/01/30 08:48:02;;;;;;;8.27;5.57;;;9.80;99.90;;;;;;5060654;28;20028;-82
2024/01/30 08:50:28;;;;;;;7.95;6.18;;;9.90;99.90;;;;;;5076991;28;20471;-83
2024/01/30 08:52:53;;;;;;;7.78;5.85;;;9.90;99.90;;;;;;5077496;28;20024;-83
2024/01/30 08:55:22;;;;;;;8.23;6.35;;;9.90;99.90;;;;;;5077227;28;20495;-83
2024/01/30 08:57:47;;;;;;;8.18;6.50;;;9.90;99.90;;;;;;5060761;28;20438;-83
2024/01/30 09:00:13;;;;;;;6.18;5.35;;;9.90;99.90;;;;;;5043919;28;20024;-83
2024/01/30 09:02:39;;;;;;;8.50;6.28;;;9.90;99.90;;;;;;5060514;28;20386;-83
2024/01/30 09:05:05;;;;;;;7.72;5.65;;;10.00;99.90;;;;;;5077523;28;20039;-83
2024/01/30 09:07:30;;;;;;;7.82;5.78;;;10.00;99.90;;;;;;5044070;28;20123;-83
2024/01/30 09:09:56;;;;;;;7.95;6.05;;;10.00;99.90;;;;;;5044806;28;20031;-83
2024/01/30 09:12:22;;;;;;;7.38;5.57;;;10.10;99.90;;;;;;5076364;28;20008;-81
2024/01/30 09:14:47;;;;;;;10.35;6.03;;;10.10;99.90;;;;;;5084397;28;20128;-82
2024/01/30 09:17:13;;;;;;;7.47;5.40;;;10.10;99.90;;;;;;5067805;28;20020;-82
2024/01/30 09:19:40;;;;;;;7.72;5.55;;;10.10;99.90;;;;;;5082383;28;20019;-81
2024/01/30 09:22:06;;;;;;;7.55;6.10;;;10.10;99.90;;;;;;5101199;28;20028;-82
2024/01/30 09:24:31;;;;;;;7.47;5.78;;;10.10;99.90;;;;;;5043863;28;20024;-82
2024/01/30 09:26:57;;;;;;;7.03;5.93;;;10.20;99.90;;;;;;5059854;28;20031;-82
2024/01/30 09:29:23;;;;;;;10.35;6.13;;;10.20;99.90;;;;;;5044034;28;20090;-82
2024/01/30 09:31:48;;;;;;;7.55;5.93;;;10.20;99.90;;;;;;5076673;28;20028;-83
2024/01/30 09:34:14;;;;;;;9.05;6.40;;;10.20;99.90;;;;;;5043500;28;20028;-83
2024/01/30 09:36:40;;;;;;;8.98;6.72;;;10.30;99.90;;;;;;5060050;28;20060;-83
2024/01/30 09:39:06;;;;;;;8.68;6.45;;;10.30;99.90;;;;;;5076793;28;20100;-82
2024/01/30 09:42:02;;;;;;;7.65;5.90;;;10.30;99.90;;;;;;5076184;28;20016;-83
2024/01/30 09:44:30;;;;;;;7.93;5.88;;;10.40;99.90;;;;;;5076207;28;20077;-83
2024/01/30 09:46:58;;;;;;;9.60;6.10;;;10.40;99.90;;;;;;5094553;28;20036;-82
2024/01/30 09:49:25;;;;;;;9.55;6.65;;;10.40;99.90;;;;;;5060063;28;20060;-83
2024/01/30 09:51:52;;;;;;;8.23;6.30;;;10.40;99.90;;;;;;5059680;28;20472;-83
2024/01/30 09:54:19;;;;;;;7.97;5.90;;;10.40;99.90;;;;;;5076254;28;20032;-82
2024/01/30 09:56:45;;;;;;;10.40;6.57;;;10.50;99.90;;;;;;5059249;28;20032;-83
2024/01/30 09:59:10;;;;;;;8.63;6.68;;;10.50;99.90;;;;;;5059695;28;20038;-83
2024/01/30 10:01:36;;;;;;;8.10;6.47;;;10.60;99.90;;;;;;5059544;28;20456;-82
2024/01/30 10:04:04;;;;;;;9.13;6.10;;;10.50;99.90;;;;;;5059542;28;20028;-82
2024/01/30 10:06:30;;;;;;;8.43;6.30;;;10.60;99.90;;;;;;5059990;28;20028;-83
2024/01/30 10:08:55;;;;;;;9.25;5.85;;;10.60;99.90;;;;;;5059175;28;20543;-83
2024/01/30 10:11:21;;;;;;;10.13;6.22;;;10.70;99.90;;;;;;5059506;28;20085;-84
2024/01/30 10:13:47;;;;;;;8.48;6.15;;;10.70;99.90;;;;;;5076084;28;20032;-82
2024/01/30 10:16:16;;;;;;;8.15;5.72;;;10.70;99.90;;;;;;5042693;28;20028;-83
2024/01/30 10:18:42;;;;;;;7.72;6.13;;;10.70;99.90;;;;;;5058888;28;20135;-83
2024/01/30 10:21:09;;;;;;;8.82;6.40;;;10.80;99.90;;;;;;5059193;28;20541;-82
2024/01/30 10:23:36;;;;;;;11.40;7.13;;;10.90;99.90;;;;;;5075903;28;20076;-82
2024/01/30 10:26:04;;;;;;;9.27;6.78;;;10.90;99.90;;;;;;5075983;28;20031;-83
2024/01/30 10:28:30;;;;;;;9.02;6.40;;;10.90;99.90;;;;;;5076241;28;20035;-82
2024/01/30 10:31:00;;;;;;;9.20;6.97;;;10.90;99.90;;;;;;5076331;28;20084;-83
2024/01/30 10:33:27;;;;;;;7.80;5.90;;;10.90;99.90;;;;;;5059446;28;20114;-82
2024/01/30 10:36:04;;;;;;;8.05;6.38;;;11.00;99.90;;;;;;5059436;28;20074;-82
2024/01/30 10:38:30;;;;;;;9.32;6.57;;;11.00;99.90;;;;;;5094209;28;20024;-83
2024/01/30 10:41:01;;;;;;;10.27;6.88;;;11.10;99.90;;;;;;5078483;28;20104;-82
2024/01/30 10:43:40;;;;;;;9.57;6.20;;;11.10;99.90;;;;;;5092361;28;20084;-83
2024/01/30 10:46:19;;;;;;;9.55;6.15;;;11.10;99.90;;;;;;5121804;28;20019;-82
2024/01/30 10:48:50;;;;;;;8.93;6.80;;;11.10;99.90;;;;;;5103379;28;20033;-82
2024/01/30 10:51:18;;;;;;;10.32;6.38;;;11.10;99.90;;;;;;5086280;28;20016;-83
2024/01/30 10:53:46;;;;;;;7.85;6.22;;;11.10;99.90;;;;;;5080354;28;20016;-83
2024/01/30 10:56:13;;;;;;;10.70;6.38;;;11.10;99.90;;;;;;5080085;28;20039;-83
2024/01/30 10:58:39;;;;;;;11.98;6.60;;;11.10;99.90;;;;;;5062980;28;20119;-83
2024/01/30 11:01:07;;;;;;;9.00;6.50;;;11.20;99.90;;;;;;5079951;28;20071;-83
2024/01/30 11:03:36;;;;;;;10.52;6.78;;;11.20;99.90;;;;;;5079685;28;20031;-83
2024/01/30 11:06:02;;;;;;;10.25;6.93;;;11.20;99.90;;;;;;5097753;28;20028;-83
2024/01/30 11:08:28;;;;;;;10.10;7.10;;;11.30;99.90;;;;;;5097520;28;20036;-82
2024/01/30 11:10:58;;;;;;;10.48;7.38;;;11.30;99.90;;;;;;5097503;28;20032;-82
2024/01/30 11:13:30;;;;;;;11.95;7.55;;;11.30;99.90;;;;;;5079451;28;20124;-82
2024/01/30 11:16:00;;;;;;;9.48;6.85;;;11.30;99.90;;;;;;5079094;28;20052;-83
2024/01/30 11:18:35;;;;;;;8.90;7.05;;;11.30;99.90;;;;;;5063004;28;20035;-83
2024/01/30 11:21:01;;;;;;;9.57;6.82;;;11.30;99.90;;;;;;5062664;28;20028;-83
2024/01/30 11:23:28;;;;;;;9.88;6.82;;;11.40;99.90;;;;;;5097259;28;20463;-83
2024/01/30 11:25:54;;;;;;;9.73;6.35;;;11.40;99.90;;;;;;5061779;28;20160;-83
2024/01/30 11:28:22;;;;;;;8.20;6.20;;;11.40;99.90;;;;;;5078777;28;20028;-83
2024/01/30 11:30:50;;;;;;;10.60;6.55;;;11.40;99.90;;;;;;5079038;28;20024;-84
2024/01/30 11:33:30;;;;;;;11.95;6.63;;;11.50;99.90;;;;;;5079020;28;20349;-83
2024/01/30 11:35:58;;;;;;;8.93;5.95;;;11.50;99.90;;;;;;5096738;28;20456;-83
2024/01/30 11:38:30;;;;;;;9.18;6.18;;;11.60;99.90;;;;;;5078474;28;20109;-84
2024/01/30 11:40:59;;;;;;;8.90;5.97;;;11.60;99.90;;;;;;5078756;28;20471;-84
2024/01/30 11:43:24;;;;;;;10.60;6.03;;;11.60;99.90;;;;;;5078824;28;20028;-83
2024/01/30 11:45:51;;;;;;;8.82;6.18;;;11.60;99.90;;;;;;5078387;28;20496;-83
2024/01/30 11:48:17;;;;;;;8.80;5.90;;;11.70;99.90;;;;;;5078508;28;20028;-83
2024/01/30 11:50:44;;;;;;;8.23;6.13;;;11.70;99.90;;;;;;5061361;28;20024;-83
2024/01/30 11:53:10;;;;;;;8.38;5.75;;;11.70;99.90;;;;;;5061843;28;20020;-83
2024/01/30 11:55:37;;;;;;;9.52;6.72;;;11.80;99.90;;;;;;5076806;28;20353;-83
2024/01/30 11:58:06;;;;;;;9.10;6.18;;;11.80;99.90;;;;;;5077477;28;20462;-84
2024/01/30 12:00:33;;;;;;;7.60;5.40;;;11.80;99.90;;;;;;5078726;28;20527;-84
2024/01/30 12:03:00;;;;;;;7.50;5.35;;;11.90;99.90;;;;;;5077993;28;20341;-84
2024/01/30 12:05:26;;;;;;;7.22;5.63;;;11.90;99.90;;;;;;5078464;28;20035;-84
2024/01/30 12:07:52;;;;;;;7.55;5.68;;;11.90;99.90;;;;;;5078773;28;20089;-84
2024/01/30 12:10:19;;;;;;;8.30;6.15;;;11.90;99.90;;;;;;5098794;28;20035;-84
2024/01/30 12:12:50;;;;;;;11.25;6.70;;;11.90;99.90;;;;;;5080752;28;20027;-84
2024/01/30 12:15:16;;;;;;;8.82;6.10;;;11.90;99.90;;;;;;5115136;28;20028;-83
2024/01/30 12:17:42;;;;;;;7.90;6.10;;;12.00;99.90;;;;;;5084032;28;20023;-83
2024/01/30 12:20:15;;;;;;;10.32;6.10;;;11.90;99.90;;;;;;5117818;28;20016;-83
2024/01/30 12:22:47;;;;;;;10.68;6.63;;;12.00;99.90;;;;;;5091379;28;20081;-83
2024/01/30 12:25:23;;;;;;;9.20;6.07;;;11.90;99.90;;;;;;5080288;28;20028;-84
2024/01/30 12:27:50;;;;;;;10.30;6.75;;;11.90;99.90;;;;;;5078257;28;20032;-83
2024/01/30 12:30:17;;;;;;;7.75;5.65;;;11.90;99.90;;;;;;5096215;28;20047;-83
2024/01/30 12:32:44;;;;;;;8.05;5.32;;;11.90;99.90;;;;;;5078057;28;20024;-82
2024/01/30 12:35:11;;;;;;;9.00;5.05;;;11.90;99.90;;;;;;5078206;28;20127;-82
2024/01/30 12:37:38;;;;;;;8.18;5.38;;;11.90;99.90;;;;;;5060432;28;20036;-82
2024/01/30 12:40:04;;;;;;;6.10;4.28;;;11.90;99.90;;;;;;5061029;28;20030;-83
2024/01/30 12:42:30;;;;;;;7.88;4.10;;;11.90;99.90;;;;;;5077424;28;20024;-83
2024/01/30 12:44:58;;;;;;;6.80;3.80;;;11.80;99.90;;;;;;5077193;28;20028;-83
2024/01/30 12:47:24;;;;;;;6.10;3.47;;;11.80;99.90;;;;;;5095664;28;20032;-83
2024/01/30 12:49:56;;;;;;;6.35;2.88;;;11.80;99.90;;;;;;5095626;28;20019;-83